Kezdőlap
METAR-TAF:

METAR-TAF

Repülőterek :

Eliszta, Oroszország

földrajzi szélesség: 46-22N, földrajzi hosszúság: 044-20E, magasság: 150 m

Jelenlegi meteorológiai megfigyelések

A jelentés 29 perccel ezelõtt készült, 13:30 UTC
Délkeleti szél 16 kt, keleti és dél-délkeleti között változik
Hőmérséklet 33°C
Páratartalom 15%
Légköri nyomás 1014 hPa
Látótávolság 10 km, vagy több
felhőtlen 1500 m magasságban, és nincs gomolyfelhõ

METAR: URWI 161330Z 13008MPS 090V150 CAVOK 33/03 Q1014 R09/010065 NOSIG

Idő: 16:59 (13:59 UTC)

Előrejelzés

A jelentés 2 órával és 59 perccel ezelõtt készült, 11:00 UTC
Az előrejelzés 16-én 12 óra UTC és 16-én 21 óra UTC között érvényes
Kelet-délkeleti szél 12 kt széllökések: 25 kt
Látótávolság 10 km, vagy több
Szórványos felhőzet 4000 lábon
16-én 12 óra UTC és 16-én 15 óra UTC között ideiglenes
Délkeleti szél 16 kt széllökések: 29 kt

TAF: URWI 161100Z 1612/1621 11006G13MPS 9999 SCT040 TEMPO 1612/1615 14008G15MPS

Meteorológiai megfigyelések és előrejelzések több, mint 4000 repülőtéren (METAR és TAF jelentéseket).

A térképen piros és sárga pontok jelzik az elérhető meteorológiai állomásokat.

Mozgassa az egeret a pont fölött, hogy megjelenjen az állomás neve.

Azután kattintson az időjárási megfigyelések és előrejelzések megtekintéséhez.

A térkép megváltoztatása: kattintson a fekete keresztel jelölt zöld gombra ráközelítéshez, a vonallal jelölt zöld gombra távolításhoz, vagy a zöld nyilakra a szomszédos térképek eléréséhez.


METAR-TAF: